createdAt,value
2023-04-15T00:00:39.227Z,82.85
2023-04-15T00:04:51.008Z,82.81
2023-04-15T00:08:56.956Z,82.24
2023-04-15T00:12:59.649Z,81.02
2023-04-15T00:17:04.872Z,81.23
2023-04-15T00:21:07.737Z,81.12
2023-04-15T00:25:12.064Z,81.05
2023-04-15T00:29:15.546Z,80.75
2023-04-15T00:33:18.432Z,81.24
2023-04-15T00:37:21.641Z,80.73
2023-04-15T00:41:25.901Z,80.86
2023-04-15T00:45:34.525Z,81.78
2023-04-15T00:49:37.667Z,83.68
2023-04-15T00:53:43.978Z,84.54
2023-04-15T00:57:52.285Z,84.64
2023-04-15T01:01:55.736Z,86.26
2023-04-15T01:06:03.892Z,87.39
2023-04-15T01:10:12.826Z,87.67
2023-04-15T01:14:18.362Z,87.56
2023-04-15T01:18:22.540Z,88.75
2023-04-15T01:22:28.001Z,90.63
2023-04-15T01:26:32.637Z,93.60
2023-04-15T01:30:36.336Z,94.58
2023-04-15T01:34:39.436Z,96.76
2023-04-15T01:38:42.516Z,98.10
2023-04-15T01:42:46.813Z,97.23
2023-04-15T01:46:49.997Z,99.00
2023-04-15T01:50:53.861Z,98.61
2023-04-15T01:54:57.088Z,100.00
2023-04-15T01:59:04.264Z,100.00
2023-04-15T02:03:06.770Z,100.00
2023-04-15T02:07:09.824Z,100.00
2023-04-15T02:11:12.757Z,100.00
2023-04-15T02:15:17.121Z,100.00
2023-04-15T02:19:20.186Z,100.00
2023-04-15T02:23:22.712Z,100.00
2023-04-15T02:27:25.634Z,100.00
2023-04-15T02:31:30.508Z,100.00
2023-04-15T02:35:33.701Z,100.00
2023-04-15T02:39:37.009Z,100.00
2023-04-15T02:43:40.329Z,100.00
2023-04-15T02:47:46.218Z,100.00
2023-04-15T02:51:50.062Z,100.00
2023-04-15T02:55:52.990Z,100.00
2023-04-15T02:59:56.017Z,100.00
2023-04-15T03:04:00.942Z,100.00
2023-04-15T03:08:04.446Z,100.00
2023-04-15T03:12:07.157Z,100.00
2023-04-15T03:16:10.363Z,100.00
2023-04-15T03:20:15.904Z,100.00
2023-04-15T03:24:19.430Z,100.00
2023-04-15T03:28:23.994Z,100.00
2023-04-15T03:32:27.520Z,100.00
2023-04-15T03:36:33.635Z,100.00
2023-04-15T03:40:39.055Z,100.00
2023-04-15T03:44:41.942Z,100.00
2023-04-15T03:48:45.258Z,100.00
2023-04-15T03:52:50.738Z,100.00
2023-04-15T03:56:53.915Z,100.00
2023-04-15T04:00:57.366Z,100.00
2023-04-15T04:05:00.320Z,100.00
2023-04-15T04:09:05.120Z,100.00
2023-04-15T04:13:08.083Z,100.00
2023-04-15T04:17:11.505Z,100.00
2023-04-15T04:21:14.581Z,100.00
2023-04-15T04:25:19.341Z,100.00
2023-04-15T04:29:22.512Z,100.00
2023-04-15T04:33:25.431Z,100.00
2023-04-15T04:37:28.637Z,100.00
2023-04-15T04:41:33.689Z,100.00
2023-04-15T04:45:36.782Z,100.00
2023-04-15T04:49:39.567Z,100.00
2023-04-15T04:53:43.350Z,100.00
2023-04-15T04:57:48.164Z,100.00
2023-04-15T05:01:51.669Z,100.00
2023-04-15T05:05:55.006Z,100.00
2023-04-15T05:09:57.620Z,100.00
2023-04-15T05:14:02.638Z,100.00
2023-04-15T05:18:05.888Z,100.00
2023-04-15T05:22:14.516Z,100.00
2023-04-15T05:26:17.975Z,100.00
2023-04-15T05:30:22.787Z,100.00
2023-04-15T05:34:25.909Z,100.00
2023-04-15T05:38:28.667Z,100.00
2023-04-15T05:42:31.705Z,100.00
2023-04-15T05:46:36.140Z,100.00
2023-04-15T05:50:39.350Z,100.00
2023-04-15T05:54:41.874Z,100.00
2023-04-15T05:58:44.726Z,100.00
2023-04-15T06:02:49.071Z,100.00
2023-04-15T06:06:51.834Z,100.00
2023-04-15T06:10:54.761Z,100.00
2023-04-15T06:15:00.201Z,100.00
2023-04-15T06:19:05.065Z,100.00
2023-04-15T06:23:08.290Z,100.00
2023-04-15T06:27:11.052Z,100.00
2023-04-15T06:31:16.266Z,100.00
2023-04-15T06:35:20.762Z,100.00
2023-04-15T06:39:23.882Z,100.00
2023-04-15T06:43:26.567Z,100.00
2023-04-15T06:47:29.692Z,100.00
2023-04-15T06:51:34.205Z,100.00
2023-04-15T06:55:38.445Z,100.00
2023-04-15T06:59:41.325Z,100.00
2023-04-15T07:03:44.231Z,100.00
2023-04-15T07:07:48.429Z,100.00
2023-04-15T07:11:51.671Z,100.00
2023-04-15T07:15:54.710Z,100.00
2023-04-15T07:19:57.797Z,100.00
2023-04-15T07:24:01.884Z,100.00
2023-04-15T07:28:10.861Z,100.00
2023-04-15T07:32:13.968Z,100.00
2023-04-15T07:36:20.207Z,100.00
2023-04-15T07:40:24.735Z,100.00
2023-04-15T07:44:28.277Z,100.00
2023-04-15T07:48:31.082Z,100.00
2023-04-15T07:52:39.421Z,100.00
2023-04-15T07:56:43.963Z,100.00
2023-04-15T08:00:47.122Z,100.00
2023-04-15T08:04:49.957Z,100.00
2023-04-15T08:08:55.938Z,100.00
2023-04-15T08:13:00.405Z,100.00
2023-04-15T08:17:04.431Z,100.00
2023-04-15T08:21:09.766Z,100.00
2023-04-15T08:25:12.446Z,100.00
2023-04-15T08:29:16.737Z,100.00
2023-04-15T08:33:19.731Z,100.00
2023-04-15T08:37:23.444Z,100.00
2023-04-15T08:41:27.452Z,100.00
2023-04-15T08:45:32.410Z,100.00
2023-04-15T08:49:37.168Z,100.00
2023-04-15T08:53:40.397Z,100.00
2023-04-15T08:57:45.620Z,100.00
2023-04-15T09:01:51.008Z,100.00
2023-04-15T09:05:55.265Z,100.00
2023-04-15T09:09:58.849Z,100.00
2023-04-15T09:14:01.909Z,100.00
2023-04-15T09:18:06.676Z,100.00
2023-04-15T09:22:09.975Z,100.00
2023-04-15T09:26:13.954Z,100.00
2023-04-15T09:30:18.381Z,100.00
2023-04-15T09:34:37.235Z,100.00
2023-04-15T09:38:56.675Z,100.00
2023-04-15T09:43:01.776Z,100.00
2023-04-15T09:47:04.858Z,100.00
2023-04-15T09:51:09.480Z,100.00
2023-04-15T09:55:13.722Z,100.00
2023-04-15T09:59:20.119Z,98.18
2023-04-15T10:03:25.630Z,96.84
2023-04-15T10:07:31.024Z,99.01
2023-04-15T10:11:36.738Z,97.63
2023-04-15T10:15:43.553Z,97.93
2023-04-15T10:19:47.357Z,98.46
2023-04-15T10:23:53.877Z,99.16
2023-04-15T10:27:59.220Z,98.08
2023-04-15T10:32:03.562Z,99.96
2023-04-15T10:36:08.386Z,99.23
2023-04-15T10:40:31.811Z,98.67
2023-04-15T10:44:34.840Z,95.12
2023-04-15T10:48:38.393Z,92.21
2023-04-15T10:52:44.161Z,89.32
2023-04-15T10:56:52.550Z,85.96
2023-04-15T11:00:55.668Z,89.97
2023-04-15T11:05:01.064Z,84.42
2023-04-15T11:09:06.269Z,86.23
2023-04-15T11:13:21.915Z,89.72
2023-04-15T11:17:31.046Z,89.11
2023-04-15T11:21:34.427Z,84.83
2023-04-15T11:25:40.234Z,91.07
2023-04-15T11:29:44.711Z,94.25
2023-04-15T11:33:49.170Z,95.40
2023-04-15T11:37:52.825Z,94.12
2023-04-15T11:41:55.656Z,92.88
2023-04-15T11:46:00.632Z,90.92
2023-04-15T11:50:16.807Z,86.75
2023-04-15T11:54:20.819Z,89.04
2023-04-15T11:58:25.275Z,87.49
2023-04-15T12:02:34.430Z,85.05
2023-04-15T12:06:39.201Z,76.90
2023-04-15T12:10:42.281Z,80.46
2023-04-15T12:14:47.242Z,86.07
2023-04-15T12:18:56.179Z,79.77
2023-04-15T12:23:09.026Z,74.57
2023-04-15T12:27:14.409Z,72.92
2023-04-15T12:31:18.311Z,72.75
2023-04-15T12:35:23.150Z,75.59
2023-04-15T12:39:28.107Z,70.75
2023-04-15T12:43:52.718Z,66.92
2023-04-15T12:47:56.220Z,70.61
2023-04-15T12:52:02.110Z,68.95
2023-04-15T12:56:05.508Z,64.31
2023-04-15T13:00:10.339Z,65.72
2023-04-15T13:04:13.750Z,65.93
2023-04-15T13:08:28.885Z,67.85
2023-04-15T13:12:33.403Z,62.35
2023-04-15T13:16:37.231Z,63.49
2023-04-15T13:20:41.098Z,65.81
2023-04-15T13:24:45.786Z,61.99
2023-04-15T13:28:48.860Z,62.75
2023-04-15T13:32:52.406Z,65.74
2023-04-15T13:36:55.756Z,67.27
2023-04-15T13:41:02.387Z,65.67
2023-04-15T13:45:06.530Z,65.16
2023-04-15T13:49:12.639Z,64.43
2023-04-15T13:53:15.921Z,64.27
2023-04-15T13:57:20.417Z,63.15
2023-04-15T14:01:23.669Z,63.55
2023-04-15T14:05:29.018Z,60.28
2023-04-15T14:09:32.163Z,61.90
2023-04-15T14:13:36.751Z,63.49
2023-04-15T14:17:39.850Z,61.64
2023-04-15T14:21:42.875Z,62.29
2023-04-15T14:25:48.943Z,62.64
2023-04-15T14:29:54.361Z,63.74
2023-04-15T14:33:57.711Z,64.62
2023-04-15T14:38:01.240Z,64.84
2023-04-15T14:42:04.784Z,65.38
2023-04-15T14:46:11.702Z,65.67
2023-04-15T14:50:14.920Z,66.56
2023-04-15T14:54:22.356Z,66.07
2023-04-15T14:58:25.630Z,67.60
2023-04-15T15:02:39.391Z,68.62
2023-04-15T15:06:43.425Z,67.53
2023-04-15T15:10:49.417Z,68.15
2023-04-15T15:14:54.809Z,71.21
2023-04-15T15:18:59.256Z,71.40
2023-04-15T15:23:02.228Z,72.64
2023-04-15T15:27:05.450Z,73.87
2023-04-15T15:31:09.190Z,75.31
2023-04-15T15:35:16.591Z,76.96
2023-04-15T15:39:19.647Z,78.31
2023-04-15T15:43:24.693Z,78.51
2023-04-15T15:47:27.823Z,78.13
2023-04-15T15:51:33.382Z,78.17
2023-04-15T15:55:39.107Z,76.85
2023-04-15T15:59:43.931Z,77.06
2023-04-15T16:03:47.137Z,77.11
2023-04-15T16:07:51.603Z,78.43
2023-04-15T16:11:58.114Z,79.07
2023-04-15T16:16:01.139Z,79.18
2023-04-15T16:20:06.423Z,77.41
2023-04-15T16:24:11.099Z,77.46
2023-04-15T16:28:25.681Z,77.47
2023-04-15T16:32:29.941Z,78.78
2023-04-15T16:36:33.012Z,79.45
2023-04-15T16:40:38.724Z,80.51
2023-04-15T16:44:44.701Z,81.44
2023-04-15T16:48:47.838Z,81.48
2023-04-15T16:52:50.939Z,81.58
2023-04-15T16:56:59.021Z,81.60
2023-04-15T17:01:01.920Z,82.21
2023-04-15T17:05:05.040Z,83.35
2023-04-15T17:09:07.842Z,84.14
2023-04-15T17:13:14.263Z,85.12
2023-04-15T17:17:20.961Z,84.19
2023-04-15T17:21:24.201Z,85.43
2023-04-15T17:25:27.350Z,86.05
2023-04-15T17:29:32.308Z,86.10
2023-04-15T17:34:01.117Z,86.72
2023-04-15T17:37:59.087Z,88.05
2023-04-15T17:42:05.026Z,87.61
2023-04-15T17:46:09.757Z,87.78
2023-04-15T17:50:12.869Z,87.77
2023-04-15T17:54:16.356Z,89.89
2023-04-15T17:58:19.361Z,90.82
2023-04-15T18:02:29.837Z,91.43
2023-04-15T18:06:33.248Z,93.05
2023-04-15T18:10:38.117Z,96.17
2023-04-15T18:14:42.769Z,97.82
2023-04-15T18:18:49.407Z,98.78
2023-04-15T18:22:52.840Z,96.37
2023-04-15T18:26:56.725Z,98.86
2023-04-15T18:30:59.617Z,100.00
2023-04-15T18:35:08.093Z,100.00
2023-04-15T18:39:11.358Z,100.00
2023-04-15T18:43:14.275Z,100.00
2023-04-15T18:47:18.203Z,100.00
2023-04-15T18:51:23.602Z,100.00
2023-04-15T18:55:26.780Z,100.00
2023-04-15T18:59:36.318Z,100.00
2023-04-15T19:03:40.053Z,100.00
2023-04-15T19:07:44.642Z,100.00
2023-04-15T19:11:47.926Z,100.00
2023-04-15T19:15:50.444Z,100.00
2023-04-15T19:19:54.095Z,100.00
2023-04-15T19:24:00.312Z,100.00
2023-04-15T19:28:03.578Z,100.00
2023-04-15T19:32:07.383Z,100.00
2023-04-15T19:36:11.902Z,100.00
2023-04-15T19:40:19.532Z,100.00
2023-04-15T19:44:22.564Z,100.00
2023-04-15T19:48:27.216Z,100.00
2023-04-15T19:52:30.165Z,100.00
2023-04-15T19:56:34.645Z,100.00
2023-04-15T20:00:38.385Z,100.00
2023-04-15T20:04:42.842Z,100.00
2023-04-15T20:08:45.881Z,100.00
2023-04-15T20:12:53.013Z,100.00
2023-04-15T20:16:58.519Z,100.00
2023-04-15T20:21:01.958Z,100.00
2023-04-15T20:25:05.273Z,100.00
2023-04-15T20:29:13.217Z,100.00
2023-04-15T20:33:18.527Z,100.00
2023-04-15T20:37:22.615Z,100.00
2023-04-15T20:41:27.693Z,100.00
2023-04-15T20:45:32.115Z,100.00
2023-04-15T20:49:36.092Z,100.00
2023-04-15T20:53:39.011Z,100.00
2023-04-15T20:57:42.615Z,100.00
2023-04-15T21:01:47.547Z,100.00
2023-04-15T21:05:50.593Z,100.00
2023-04-15T21:09:55.510Z,100.00
2023-04-15T21:13:58.683Z,100.00
2023-04-15T21:18:08.684Z,100.00
2023-04-15T21:22:11.924Z,100.00
2023-04-15T21:26:14.475Z,100.00
2023-04-15T21:30:18.275Z,100.00
2023-04-15T21:34:23.212Z,100.00
2023-04-15T21:38:26.515Z,100.00
2023-04-15T21:42:31.601Z,100.00
2023-04-15T21:46:35.631Z,100.00
2023-04-15T21:50:40.549Z,100.00
2023-04-15T21:54:43.511Z,100.00
2023-04-15T21:58:46.434Z,100.00
2023-04-15T22:02:49.451Z,100.00
2023-04-15T22:06:55.779Z,100.00
2023-04-15T22:10:58.804Z,100.00
2023-04-15T22:15:02.075Z,100.00
2023-04-15T22:19:05.443Z,100.00
2023-04-15T22:23:10.127Z,100.00
2023-04-15T22:27:12.882Z,100.00
2023-04-15T22:31:16.148Z,100.00
2023-04-15T22:35:21.467Z,100.00
2023-04-15T22:39:26.251Z,100.00
2023-04-15T22:43:29.462Z,100.00
2023-04-15T22:47:32.785Z,100.00
2023-04-15T22:51:36.821Z,100.00
2023-04-15T22:55:41.133Z,100.00
2023-04-15T22:59:44.248Z,100.00
2023-04-15T23:03:56.110Z,100.00
2023-04-15T23:08:07.648Z,100.00
2023-04-15T23:12:12.425Z,100.00
2023-04-15T23:16:15.513Z,100.00
2023-04-15T23:20:21.832Z,100.00
2023-04-15T23:24:24.837Z,100.00
2023-04-15T23:28:29.235Z,100.00
2023-04-15T23:32:32.491Z,100.00
2023-04-15T23:36:35.588Z,100.00
2023-04-15T23:40:38.547Z,100.00
2023-04-15T23:44:43.001Z,100.00
2023-04-15T23:48:48.054Z,100.00
2023-04-15T23:52:51.140Z,100.00
2023-04-15T23:56:54.167Z,100.00
